sensor_id;sensor_type;location;lat;lon;timestamp;pressure;altitude;pressure_sealevel;temperature;humidity
31681;BME280;18281;51.364;9.566;2023-07-13T00:02:23;99826.63;;;15.75;94.65
31681;BME280;18281;51.364;9.566;2023-07-13T00:04:48;99823.69;;;15.67;93.63
31681;BME280;18281;51.364;9.566;2023-07-13T00:07:13;99828.03;;;15.68;93.55
31681;BME280;18281;51.364;9.566;2023-07-13T00:09:40;99835.13;;;15.90;92.98
31681;BME280;18281;51.364;9.566;2023-07-13T00:12:19;99833.91;;;15.83;93.79
31681;BME280;18281;51.364;9.566;2023-07-13T00:14:46;99830.22;;;15.74;94.85
31681;BME280;18281;51.364;9.566;2023-07-13T00:17:11;99830.91;;;15.87;94.59
31681;BME280;18281;51.364;9.566;2023-07-13T00:19:36;99836.75;;;16.02;93.68
31681;BME280;18281;51.364;9.566;2023-07-13T00:22:02;99835.34;;;15.98;94.48
31681;BME280;18281;51.364;9.566;2023-07-13T00:24:27;99832.59;;;15.88;95.19
31681;BME280;18281;51.364;9.566;2023-07-13T00:26:52;99842.94;;;15.57;97.55
31681;BME280;18281;51.364;9.566;2023-07-13T00:29:18;99841.50;;;15.53;98.01
31681;BME280;18281;51.364;9.566;2023-07-13T00:31:43;99828.66;;;15.71;97.09
31681;BME280;18281;51.364;9.566;2023-07-13T00:34:09;99827.69;;;15.72;97.53
31681;BME280;18281;51.364;9.566;2023-07-13T00:36:34;99826.00;;;15.71;98.12
31681;BME280;18281;51.364;9.566;2023-07-13T00:39:00;99829.84;;;15.79;97.14
31681;BME280;18281;51.364;9.566;2023-07-13T00:41:25;99840.28;;;15.80;97.01
31681;BME280;18281;51.364;9.566;2023-07-13T00:43:51;99836.72;;;15.47;99.95
31681;BME280;18281;51.364;9.566;2023-07-13T00:46:19;99836.72;;;15.36;100.00
31681;BME280;18281;51.364;9.566;2023-07-13T00:48:45;99840.78;;;15.63;98.88
31681;BME280;18281;51.364;9.566;2023-07-13T00:51:11;99844.16;;;15.65;98.82
31681;BME280;18281;51.364;9.566;2023-07-13T00:53:38;99835.97;;;15.68;98.53
31681;BME280;18281;51.364;9.566;2023-07-13T00:56:04;99832.84;;;15.63;98.75
31681;BME280;18281;51.364;9.566;2023-07-13T00:58:30;99834.78;;;15.60;98.86
31681;BME280;18281;51.364;9.566;2023-07-13T01:00:55;99838.13;;;15.63;99.05
31681;BME280;18281;51.364;9.566;2023-07-13T01:03:20;99835.34;;;15.64;99.10
31681;BME280;18281;51.364;9.566;2023-07-13T01:05:47;99842.59;;;15.62;98.89
31681;BME280;18281;51.364;9.566;2023-07-13T01:08:13;99836.69;;;15.58;99.03
31681;BME280;18281;51.364;9.566;2023-07-13T01:10:38;99835.59;;;15.61;98.28
31681;BME280;18281;51.364;9.566;2023-07-13T01:13:06;99839.81;;;15.64;97.98
31681;BME280;18281;51.364;9.566;2023-07-13T01:15:36;99836.22;;;15.53;97.89
31681;BME280;18281;51.364;9.566;2023-07-13T01:18:02;99833.47;;;15.43;98.35
31681;BME280;18281;51.364;9.566;2023-07-13T01:20:28;99844.06;;;15.55;98.15
31681;BME280;18281;51.364;9.566;2023-07-13T01:22:53;99844.88;;;15.55;98.09
31681;BME280;18281;51.364;9.566;2023-07-13T01:25:19;99848.03;;;15.38;99.16
31681;BME280;18281;51.364;9.566;2023-07-13T01:27:46;99842.25;;;15.33;100.00
31681;BME280;18281;51.364;9.566;2023-07-13T01:30:11;99846.69;;;15.21;100.00
31681;BME280;18281;51.364;9.566;2023-07-13T01:32:36;99848.72;;;15.40;100.00
31681;BME280;18281;51.364;9.566;2023-07-13T01:35:01;99850.19;;;15.33;99.90
31681;BME280;18281;51.364;9.566;2023-07-13T01:37:27;99853.66;;;15.33;99.96
31681;BME280;18281;51.364;9.566;2023-07-13T01:39:52;99846.56;;;15.45;99.03
31681;BME280;18281;51.364;9.566;2023-07-13T01:42:18;99844.50;;;15.60;97.90
31681;BME280;18281;51.364;9.566;2023-07-13T01:44:43;99849.81;;;15.37;99.97
31681;BME280;18281;51.364;9.566;2023-07-13T01:47:09;99846.00;;;15.41;100.00
31681;BME280;18281;51.364;9.566;2023-07-13T01:49:34;99839.00;;;15.40;100.00
31681;BME280;18281;51.364;9.566;2023-07-13T01:52:00;99845.84;;;15.32;100.00
31681;BME280;18281;51.364;9.566;2023-07-13T01:54:25;99842.72;;;15.26;100.00
31681;BME280;18281;51.364;9.566;2023-07-13T01:56:50;99851.88;;;15.11;100.00
31681;BME280;18281;51.364;9.566;2023-07-13T01:59:16;99851.38;;;14.95;100.00
31681;BME280;18281;51.364;9.566;2023-07-13T02:01:41;99850.91;;;15.12;100.00
31681;BME280;18281;51.364;9.566;2023-07-13T02:04:06;99849.22;;;15.22;100.00
31681;BME280;18281;51.364;9.566;2023-07-13T02:06:31;99839.59;;;15.33;100.00
31681;BME280;18281;51.364;9.566;2023-07-13T02:08:57;99842.34;;;15.20;100.00
31681;BME280;18281;51.364;9.566;2023-07-13T02:11:22;99841.53;;;15.19;100.00
31681;BME280;18281;51.364;9.566;2023-07-13T02:13:47;99849.22;;;15.11;100.00
31681;BME280;18281;51.364;9.566;2023-07-13T02:16:13;99846.09;;;15.06;100.00
31681;BME280;18281;51.364;9.566;2023-07-13T02:18:38;99851.09;;;14.86;100.00
31681;BME280;18281;51.364;9.566;2023-07-13T02:21:04;99845.00;;;15.08;100.00
31681;BME280;18281;51.364;9.566;2023-07-13T02:23:29;99847.28;;;15.13;100.00
31681;BME280;18281;51.364;9.566;2023-07-13T02:25:58;99840.31;;;15.23;100.00
31681;BME280;18281;51.364;9.566;2023-07-13T02:28:23;99830.94;;;14.85;100.00
31681;BME280;18281;51.364;9.566;2023-07-13T02:30:49;99829.78;;;14.65;100.00
31681;BME280;18281;51.364;9.566;2023-07-13T02:33:14;99836.88;;;14.76;100.00
31681;BME280;18281;51.364;9.566;2023-07-13T02:35:39;99833.44;;;14.98;100.00
31681;BME280;18281;51.364;9.566;2023-07-13T02:38:04;99829.94;;;14.86;100.00
31681;BME280;18281;51.364;9.566;2023-07-13T02:40:30;99828.69;;;14.68;100.00
31681;BME280;18281;51.364;9.566;2023-07-13T02:42:58;99821.56;;;14.57;100.00
31681;BME280;18281;51.364;9.566;2023-07-13T02:45:23;99823.41;;;14.68;100.00
31681;BME280;18281;51.364;9.566;2023-07-13T02:47:48;99819.56;;;14.72;100.00
31681;BME280;18281;51.364;9.566;2023-07-13T02:50:13;99817.31;;;14.43;100.00
31681;BME280;18281;51.364;9.566;2023-07-13T02:52:39;99828.94;;;14.29;100.00
31681;BME280;18281;51.364;9.566;2023-07-13T02:55:04;99827.13;;;14.30;100.00
31681;BME280;18281;51.364;9.566;2023-07-13T02:57:29;99832.63;;;14.26;100.00
31681;BME280;18281;51.364;9.566;2023-07-13T02:59:57;99825.78;;;14.00;100.00
31681;BME280;18281;51.364;9.566;2023-07-13T03:02:23;99830.78;;;14.16;100.00
31681;BME280;18281;51.364;9.566;2023-07-13T03:04:49;99826.50;;;14.02;100.00
31681;BME280;18281;51.364;9.566;2023-07-13T03:07:14;99837.13;;;14.37;100.00
31681;BME280;18281;51.364;9.566;2023-07-13T03:09:40;99830.03;;;13.89;100.00
31681;BME280;18281;51.364;9.566;2023-07-13T03:12:05;99830.88;;;13.90;100.00
31681;BME280;18281;51.364;9.566;2023-07-13T03:14:31;99837.66;;;13.81;100.00
31681;BME280;18281;51.364;9.566;2023-07-13T03:16:56;99841.59;;;13.75;100.00
31681;BME280;18281;51.364;9.566;2023-07-13T03:19:21;99839.34;;;13.82;100.00
31681;BME280;18281;51.364;9.566;2023-07-13T03:21:47;99846.44;;;14.06;100.00
31681;BME280;18281;51.364;9.566;2023-07-13T03:24:12;99849.97;;;13.93;100.00
31681;BME280;18281;51.364;9.566;2023-07-13T03:26:37;99856.47;;;13.64;100.00
31681;BME280;18281;51.364;9.566;2023-07-13T03:29:02;99861.47;;;13.55;100.00
31681;BME280;18281;51.364;9.566;2023-07-13T03:31:28;99859.41;;;13.72;100.00
31681;BME280;18281;51.364;9.566;2023-07-13T03:33:55;99862.81;;;13.74;100.00
31681;BME280;18281;51.364;9.566;2023-07-13T03:36:24;99870.72;;;13.61;100.00
31681;BME280;18281;51.364;9.566;2023-07-13T03:38:50;99868.75;;;13.52;100.00
31681;BME280;18281;51.364;9.566;2023-07-13T03:41:16;99867.16;;;13.49;100.00
31681;BME280;18281;51.364;9.566;2023-07-13T03:43:41;99864.00;;;13.44;100.00
31681;BME280;18281;51.364;9.566;2023-07-13T03:46:07;99868.34;;;13.45;100.00
31681;BME280;18281;51.364;9.566;2023-07-13T03:48:32;99867.50;;;13.32;100.00
31681;BME280;18281;51.364;9.566;2023-07-13T03:50:57;99873.59;;;13.32;100.00
31681;BME280;18281;51.364;9.566;2023-07-13T03:53:23;99877.94;;;13.33;100.00
31681;BME280;18281;51.364;9.566;2023-07-13T03:55:48;99884.56;;;13.39;100.00
31681;BME280;18281;51.364;9.566;2023-07-13T03:58:27;99886.44;;;13.50;100.00
31681;BME280;18281;51.364;9.566;2023-07-13T04:00:53;99898.72;;;13.38;100.00
31681;BME280;18281;51.364;9.566;2023-07-13T04:03:18;99893.00;;;13.57;100.00
31681;BME280;18281;51.364;9.566;2023-07-13T04:05:44;99892.19;;;13.18;100.00
31681;BME280;18281;51.364;9.566;2023-07-13T04:08:09;99898.31;;;13.31;100.00
31681;BME280;18281;51.364;9.566;2023-07-13T04:10:34;99897.25;;;13.21;100.00
31681;BME280;18281;51.364;9.566;2023-07-13T04:13:00;99903.03;;;13.26;100.00
31681;BME280;18281;51.364;9.566;2023-07-13T04:15:27;99904.81;;;13.25;100.00
31681;BME280;18281;51.364;9.566;2023-07-13T04:17:52;99897.34;;;13.06;100.00
31681;BME280;18281;51.364;9.566;2023-07-13T04:20:17;99908.38;;;12.99;100.00
31681;BME280;18281;51.364;9.566;2023-07-13T04:22:44;99911.25;;;12.96;100.00
31681;BME280;18281;51.364;9.566;2023-07-13T04:25:10;99915.06;;;13.17;100.00
31681;BME280;18281;51.364;9.566;2023-07-13T04:27:35;99919.78;;;12.99;100.00
31681;BME280;18281;51.364;9.566;2023-07-13T04:30:00;99912.19;;;12.95;100.00
31681;BME280;18281;51.364;9.566;2023-07-13T04:32:25;99906.19;;;12.92;100.00
31681;BME280;18281;51.364;9.566;2023-07-13T04:34:51;99911.16;;;13.10;100.00
31681;BME280;18281;51.364;9.566;2023-07-13T04:37:18;99906.06;;;13.71;100.00
31681;BME280;18281;51.364;9.566;2023-07-13T04:39:43;99913.72;;;14.37;100.00
31681;BME280;18281;51.364;9.566;2023-07-13T04:42:08;99917.69;;;14.67;100.00
31681;BME280;18281;51.364;9.566;2023-07-13T04:44:34;99919.81;;;14.86;99.34
31681;BME280;18281;51.364;9.566;2023-07-13T04:46:59;99913.50;;;15.00;97.29
31681;BME280;18281;51.364;9.566;2023-07-13T04:49:24;99920.72;;;15.09;96.21
31681;BME280;18281;51.364;9.566;2023-07-13T04:51:49;99926.16;;;15.19;95.23
31681;BME280;18281;51.364;9.566;2023-07-13T04:54:15;99920.28;;;15.27;94.88
31681;BME280;18281;51.364;9.566;2023-07-13T04:56:40;99928.09;;;15.29;93.72
31681;BME280;18281;51.364;9.566;2023-07-13T04:59:05;99928.34;;;15.37;93.30
31681;BME280;18281;51.364;9.566;2023-07-13T05:01:30;99926.66;;;15.36;92.62
31681;BME280;18281;51.364;9.566;2023-07-13T05:03:56;99927.38;;;15.38;92.13
31681;BME280;18281;51.364;9.566;2023-07-13T05:06:23;99921.97;;;15.39;91.14
31681;BME280;18281;51.364;9.566;2023-07-13T05:08:48;99931.00;;;15.48;90.80
31681;BME280;18281;51.364;9.566;2023-07-13T05:11:14;99923.66;;;15.52;90.59
31681;BME280;18281;51.364;9.566;2023-07-13T05:13:39;99926.91;;;15.55;91.02
31681;BME280;18281;51.364;9.566;2023-07-13T05:16:04;99925.22;;;15.54;91.16
31681;BME280;18281;51.364;9.566;2023-07-13T05:18:32;99927.63;;;15.57;91.25
31681;BME280;18281;51.364;9.566;2023-07-13T05:21:03;99926.53;;;15.60;90.86
31681;BME280;18281;51.364;9.566;2023-07-13T05:23:29;99922.38;;;15.69;90.81
31681;BME280;18281;51.364;9.566;2023-07-13T05:25:55;99917.31;;;15.66;90.24
31681;BME280;18281;51.364;9.566;2023-07-13T05:28:20;99918.13;;;15.77;90.48
31681;BME280;18281;51.364;9.566;2023-07-13T05:30:49;99923.78;;;15.84;89.77
31681;BME280;18281;51.364;9.566;2023-07-13T05:33:14;99922.25;;;15.82;89.61
31681;BME280;18281;51.364;9.566;2023-07-13T05:35:40;99919.97;;;15.88;90.25
31681;BME280;18281;51.364;9.566;2023-07-13T05:38:05;99923.78;;;15.96;90.76
31681;BME280;18281;51.364;9.566;2023-07-13T05:40:30;99921.75;;;15.99;88.97
31681;BME280;18281;51.364;9.566;2023-07-13T05:42:56;99925.97;;;16.02;88.95
31681;BME280;18281;51.364;9.566;2023-07-13T05:45:21;99922.81;;;16.08;89.16
31681;BME280;18281;51.364;9.566;2023-07-13T05:47:46;99921.81;;;16.20;88.27
31681;BME280;18281;51.364;9.566;2023-07-13T05:50:11;99929.31;;;16.04;89.42
31681;BME280;18281;51.364;9.566;2023-07-13T05:52:37;99925.59;;;16.06;88.44
31681;BME280;18281;51.364;9.566;2023-07-13T05:55:02;99923.28;;;16.24;87.02
31681;BME280;18281;51.364;9.566;2023-07-13T05:57:28;99926.00;;;16.23;87.95
31681;BME280;18281;51.364;9.566;2023-07-13T05:59:53;99934.81;;;16.23;86.95
31681;BME280;18281;51.364;9.566;2023-07-13T06:02:18;99935.75;;;16.34;86.15
31681;BME280;18281;51.364;9.566;2023-07-13T06:04:43;99935.84;;;15.77;87.99
31681;BME280;18281;51.364;9.566;2023-07-13T06:07:08;99933.06;;;15.90;87.92
31681;BME280;18281;51.364;9.566;2023-07-13T06:09:34;99936.66;;;16.12;86.87
31681;BME280;18281;51.364;9.566;2023-07-13T06:11:59;99938.72;;;15.97;85.50
31681;BME280;18281;51.364;9.566;2023-07-13T06:14:24;99931.69;;;16.18;84.86
31681;BME280;18281;51.364;9.566;2023-07-13T06:16:50;99933.94;;;16.34;84.15
31681;BME280;18281;51.364;9.566;2023-07-13T06:19:15;99934.78;;;16.35;83.31
31681;BME280;18281;51.364;9.566;2023-07-13T06:21:41;99931.78;;;16.39;83.02
31681;BME280;18281;51.364;9.566;2023-07-13T06:24:06;99941.50;;;16.50;81.57
31681;BME280;18281;51.364;9.566;2023-07-13T06:26:31;99942.25;;;16.41;80.86
31681;BME280;18281;51.364;9.566;2023-07-13T06:28:57;99945.91;;;16.29;80.32
31681;BME280;18281;51.364;9.566;2023-07-13T06:31:22;99945.41;;;16.67;79.83
31681;BME280;18281;51.364;9.566;2023-07-13T06:33:47;99955.66;;;16.72;78.67
31681;BME280;18281;51.364;9.566;2023-07-13T06:36:12;99953.16;;;16.91;78.62
31681;BME280;18281;51.364;9.566;2023-07-13T06:38:38;99958.28;;;17.04;78.30
31681;BME280;18281;51.364;9.566;2023-07-13T06:41:03;99957.38;;;17.15;77.99
31681;BME280;18281;51.364;9.566;2023-07-13T06:43:29;99947.16;;;17.10;77.72
31681;BME280;18281;51.364;9.566;2023-07-13T06:45:56;99949.81;;;17.32;77.39
31681;BME280;18281;51.364;9.566;2023-07-13T06:48:21;99944.94;;;17.37;77.13
31681;BME280;18281;51.364;9.566;2023-07-13T06:50:48;99944.84;;;17.38;77.31
31681;BME280;18281;51.364;9.566;2023-07-13T06:53:13;99946.03;;;17.55;76.97
31681;BME280;18281;51.364;9.566;2023-07-13T06:55:39;99951.44;;;17.75;76.48
31681;BME280;18281;51.364;9.566;2023-07-13T06:58:04;99952.44;;;17.84;76.23
31681;BME280;18281;51.364;9.566;2023-07-13T07:00:30;99950.28;;;17.99;76.04
31681;BME280;18281;51.364;9.566;2023-07-13T07:02:56;99947.34;;;18.02;75.05
31681;BME280;18281;51.364;9.566;2023-07-13T07:05:21;99940.97;;;18.24;75.20
31681;BME280;18281;51.364;9.566;2023-07-13T07:07:50;99942.66;;;17.84;74.47
31681;BME280;18281;51.364;9.566;2023-07-13T07:10:16;99933.63;;;18.06;74.50
31681;BME280;18281;51.364;9.566;2023-07-13T07:12:41;99936.22;;;18.18;73.99
31681;BME280;18281;51.364;9.566;2023-07-13T07:15:06;99941.53;;;18.27;73.75
31681;BME280;18281;51.364;9.566;2023-07-13T07:17:32;99944.25;;;18.47;73.51
31681;BME280;18281;51.364;9.566;2023-07-13T07:19:57;99942.41;;;18.57;73.01
31681;BME280;18281;51.364;9.566;2023-07-13T07:22:22;99941.44;;;18.58;71.73
31681;BME280;18281;51.364;9.566;2023-07-13T07:24:47;99941.28;;;18.60;71.35
31681;BME280;18281;51.364;9.566;2023-07-13T07:27:13;99942.28;;;18.69;71.25
31681;BME280;18281;51.364;9.566;2023-07-13T07:29:38;99944.09;;;18.78;71.49
31681;BME280;18281;51.364;9.566;2023-07-13T07:32:03;99949.84;;;18.83;71.29
31681;BME280;18281;51.364;9.566;2023-07-13T07:34:29;99947.50;;;18.90;70.53
31681;BME280;18281;51.364;9.566;2023-07-13T07:36:56;99948.88;;;19.04;70.33
31681;BME280;18281;51.364;9.566;2023-07-13T07:39:21;99945.38;;;19.03;70.26
31681;BME280;18281;51.364;9.566;2023-07-13T07:41:47;99948.44;;;19.18;69.16
31681;BME280;18281;51.364;9.566;2023-07-13T07:44:12;99947.69;;;19.36;69.36
31681;BME280;18281;51.364;9.566;2023-07-13T07:46:38;99954.28;;;19.32;69.18
31681;BME280;18281;51.364;9.566;2023-07-13T07:49:05;99957.63;;;19.34;69.52
31681;BME280;18281;51.364;9.566;2023-07-13T07:51:30;99955.50;;;19.47;69.72
31681;BME280;18281;51.364;9.566;2023-07-13T07:53:55;99957.50;;;19.25;69.05
31681;BME280;18281;51.364;9.566;2023-07-13T07:56:21;99957.34;;;19.37;68.97
31681;BME280;18281;51.364;9.566;2023-07-13T07:58:46;99957.84;;;19.13;69.04
31681;BME280;18281;51.364;9.566;2023-07-13T08:01:11;99954.25;;;19.41;68.50
31681;BME280;18281;51.364;9.566;2023-07-13T08:03:36;99946.09;;;19.53;68.51
31681;BME280;18281;51.364;9.566;2023-07-13T08:06:01;99947.63;;;19.55;68.39
31681;BME280;18281;51.364;9.566;2023-07-13T08:08:27;99957.44;;;19.55;68.42
31681;BME280;18281;51.364;9.566;2023-07-13T08:10:52;99961.69;;;19.38;67.82
31681;BME280;18281;51.364;9.566;2023-07-13T08:13:17;99959.13;;;19.56;67.53
31681;BME280;18281;51.364;9.566;2023-07-13T08:15:43;99965.81;;;19.60;67.37
31681;BME280;18281;51.364;9.566;2023-07-13T08:18:08;99953.19;;;19.72;66.71
31681;BME280;18281;51.364;9.566;2023-07-13T08:20:36;99957.91;;;19.88;68.05
31681;BME280;18281;51.364;9.566;2023-07-13T08:23:01;99953.66;;;19.95;67.29
31681;BME280;18281;51.364;9.566;2023-07-13T08:25:26;99950.84;;;19.97;67.22
31681;BME280;18281;51.364;9.566;2023-07-13T08:27:51;99953.72;;;20.31;67.16
31681;BME280;18281;51.364;9.566;2023-07-13T08:30:16;99947.00;;;20.09;68.02
31681;BME280;18281;51.364;9.566;2023-07-13T08:32:42;99949.69;;;19.99;67.15
31681;BME280;18281;51.364;9.566;2023-07-13T08:35:07;99948.88;;;19.99;66.85
31681;BME280;18281;51.364;9.566;2023-07-13T08:37:32;99946.78;;;20.20;66.61
31681;BME280;18281;51.364;9.566;2023-07-13T08:39:57;99943.47;;;20.36;66.49
31681;BME280;18281;51.364;9.566;2023-07-13T08:47:20;99947.56;;;20.31;66.60
31681;BME280;18281;51.364;9.566;2023-07-13T08:49:47;99947.72;;;20.29;66.45
31681;BME280;18281;51.364;9.566;2023-07-13T08:52:15;99950.16;;;20.22;66.74
31681;BME280;18281;51.364;9.566;2023-07-13T08:54:43;99952.91;;;20.31;66.47
31681;BME280;18281;51.364;9.566;2023-07-13T08:57:16;99953.03;;;20.29;66.38
31681;BME280;18281;51.364;9.566;2023-07-13T08:59:43;99950.06;;;20.32;66.31
31681;BME280;18281;51.364;9.566;2023-07-13T09:04:48;99951.22;;;20.30;66.60
31681;BME280;18281;51.364;9.566;2023-07-13T09:10:08;99951.72;;;20.43;66.27
31681;BME280;18281;51.364;9.566;2023-07-13T09:12:44;99952.09;;;20.48;66.29
31681;BME280;18281;51.364;9.566;2023-07-13T09:18:08;99948.44;;;20.49;66.60
31681;BME280;18281;51.364;9.566;2023-07-13T09:20:44;99948.44;;;20.49;66.65
31681;BME280;18281;51.364;9.566;2023-07-13T09:23:12;99948.53;;;20.57;66.70
31681;BME280;18281;51.364;9.566;2023-07-13T09:25:39;99944.09;;;20.84;65.66
31681;BME280;18281;51.364;9.566;2023-07-13T09:28:10;99953.69;;;20.95;64.84
31681;BME280;18281;51.364;9.566;2023-07-13T09:30:38;99941.38;;;21.20;64.88
31681;BME280;18281;51.364;9.566;2023-07-13T09:33:07;99949.63;;;21.09;64.45
31681;BME280;18281;51.364;9.566;2023-07-13T09:35:34;99950.56;;;20.82;63.31
31681;BME280;18281;51.364;9.566;2023-07-13T09:38:17;99956.59;;;20.66;63.59
31681;BME280;18281;51.364;9.566;2023-07-13T09:40:44;99945.22;;;20.82;63.12
31681;BME280;18281;51.364;9.566;2023-07-13T09:43:13;99946.97;;;20.91;63.22
31681;BME280;18281;51.364;9.566;2023-07-13T09:45:39;99947.75;;;21.27;63.68
31681;BME280;18281;51.364;9.566;2023-07-13T09:48:06;99946.84;;;21.45;63.42
31681;BME280;18281;51.364;9.566;2023-07-13T09:50:33;99948.78;;;21.61;64.04
31681;BME280;18281;51.364;9.566;2023-07-13T09:53:00;99945.03;;;21.46;63.40
31681;BME280;18281;51.364;9.566;2023-07-13T09:55:37;99950.09;;;21.31;62.97
31681;BME280;18281;51.364;9.566;2023-07-13T09:58:03;99946.97;;;21.35;62.86
31681;BME280;18281;51.364;9.566;2023-07-13T10:00:30;99958.72;;;21.16;62.85
31681;BME280;18281;51.364;9.566;2023-07-13T10:05:41;99961.50;;;21.15;63.32
31681;BME280;18281;51.364;9.566;2023-07-13T10:08:14;99968.41;;;21.25;63.67
31681;BME280;18281;51.364;9.566;2023-07-13T10:10:40;99966.72;;;21.16;62.58
31681;BME280;18281;51.364;9.566;2023-07-13T10:13:05;99970.06;;;21.18;62.66
31681;BME280;18281;51.364;9.566;2023-07-13T10:15:30;99969.38;;;21.16;63.08
31681;BME280;18281;51.364;9.566;2023-07-13T10:17:56;99963.63;;;21.29;63.54
31681;BME280;18281;51.364;9.566;2023-07-13T10:20:23;99966.13;;;21.31;63.48
31681;BME280;18281;51.364;9.566;2023-07-13T10:25:16;99964.69;;;21.36;63.42
31681;BME280;18281;51.364;9.566;2023-07-13T10:27:43;99968.88;;;21.39;63.08
31681;BME280;18281;51.364;9.566;2023-07-13T10:30:25;99963.28;;;21.32;63.02
31681;BME280;18281;51.364;9.566;2023-07-13T10:32:53;99973.88;;;20.98;62.71
31681;BME280;18281;51.364;9.566;2023-07-13T10:35:19;99967.88;;;21.14;62.47
31681;BME280;18281;51.364;9.566;2023-07-13T10:37:52;99966.72;;;21.16;62.81
31681;BME280;18281;51.364;9.566;2023-07-13T10:40:23;99974.84;;;21.33;62.78
31681;BME280;18281;51.364;9.566;2023-07-13T10:42:52;99966.13;;;21.31;61.80
31681;BME280;18281;51.364;9.566;2023-07-13T10:45:20;99968.75;;;21.22;62.03
31681;BME280;18281;51.364;9.566;2023-07-13T10:47:47;99974.50;;;21.09;61.81
31681;BME280;18281;51.364;9.566;2023-07-13T10:50:20;99973.66;;;21.09;62.13
31681;BME280;18281;51.364;9.566;2023-07-13T10:52:47;99979.91;;;21.18;62.23
31681;BME280;18281;51.364;9.566;2023-07-13T10:57:59;99978.59;;;21.22;62.27
31681;BME280;18281;51.364;9.566;2023-07-13T11:00:25;99978.28;;;21.25;61.93
31681;BME280;18281;51.364;9.566;2023-07-13T11:02:57;99979.41;;;21.40;61.70
31681;BME280;18281;51.364;9.566;2023-07-13T11:07:52;99973.31;;;21.30;61.69
31681;BME280;18281;51.364;9.566;2023-07-13T11:13:04;99969.94;;;21.54;61.59
31681;BME280;18281;51.364;9.566;2023-07-13T11:15:32;99971.03;;;21.70;61.27
31681;BME280;18281;51.364;9.566;2023-07-13T11:17:57;99973.91;;;21.42;61.18
31681;BME280;18281;51.364;9.566;2023-07-13T11:20:34;99967.25;;;21.46;61.27
31681;BME280;18281;51.364;9.566;2023-07-13T11:23:17;99969.13;;;21.54;61.15
31681;BME280;18281;51.364;9.566;2023-07-13T11:25:43;99971.38;;;21.40;61.69
31681;BME280;18281;51.364;9.566;2023-07-13T11:35:34;99965.13;;;21.58;61.39
31681;BME280;18281;51.364;9.566;2023-07-13T11:38:01;99966.84;;;21.67;60.50
31681;BME280;18281;51.364;9.566;2023-07-13T11:40:27;99966.16;;;21.65;61.18
31681;BME280;18281;51.364;9.566;2023-07-13T11:43:01;99974.72;;;21.42;61.59
31681;BME280;18281;51.364;9.566;2023-07-13T11:45:26;99970.19;;;21.69;61.63
31681;BME280;18281;51.364;9.566;2023-07-13T11:47:53;99967.69;;;21.94;61.36
31681;BME280;18281;51.364;9.566;2023-07-13T11:50:19;99951.53;;;22.20;61.18
31681;BME280;18281;51.364;9.566;2023-07-13T11:52:46;99951.72;;;22.27;60.69
31681;BME280;18281;51.364;9.566;2023-07-13T11:55:15;99952.56;;;22.27;60.23
31681;BME280;18281;51.364;9.566;2023-07-13T11:57:43;99957.75;;;22.29;60.93
31681;BME280;18281;51.364;9.566;2023-07-13T12:00:13;99965.56;;;22.06;59.88
31681;BME280;18281;51.364;9.566;2023-07-13T12:02:44;99958.72;;;22.12;59.64
31681;BME280;18281;51.364;9.566;2023-07-13T12:05:11;99955.84;;;21.70;59.35
31681;BME280;18281;51.364;9.566;2023-07-13T12:07:37;99953.84;;;22.15;59.69
31681;BME280;18281;51.364;9.566;2023-07-13T12:10:25;99961.84;;;22.07;59.62
31681;BME280;18281;51.364;9.566;2023-07-13T12:12:52;99964.88;;;22.12;59.40
31681;BME280;18281;51.364;9.566;2023-07-13T12:15:18;99960.59;;;22.19;59.55
31681;BME280;18281;51.364;9.566;2023-07-13T12:17:43;99964.88;;;22.12;58.50
31681;BME280;18281;51.364;9.566;2023-07-13T12:20:17;99963.50;;;21.91;57.93
31681;BME280;18281;51.364;9.566;2023-07-13T12:22:48;99969.19;;;21.97;58.50
31681;BME280;18281;51.364;9.566;2023-07-13T12:25:14;99966.38;;;22.06;58.78
31681;BME280;18281;51.364;9.566;2023-07-13T12:27:40;99969.88;;;22.07;58.97
31681;BME280;18281;51.364;9.566;2023-07-13T12:30:15;99966.19;;;22.00;58.91
31681;BME280;18281;51.364;9.566;2023-07-13T12:35:46;99973.84;;;22.37;59.64
31681;BME280;18281;51.364;9.566;2023-07-13T12:38:12;99973.56;;;22.06;59.96
31681;BME280;18281;51.364;9.566;2023-07-13T12:40:38;99975.88;;;21.92;59.99
31681;BME280;18281;51.364;9.566;2023-07-13T12:43:05;99991.25;;;21.99;60.38
31681;BME280;18281;51.364;9.566;2023-07-13T12:45:32;99990.28;;;22.08;61.17
31681;BME280;18281;51.364;9.566;2023-07-13T12:48:04;100001.06;;;21.64;61.40
31681;BME280;18281;51.364;9.566;2023-07-13T12:50:34;99989.84;;;21.86;61.69
31681;BME280;18281;51.364;9.566;2023-07-13T12:53:02;99993.25;;;21.97;61.12
31681;BME280;18281;51.364;9.566;2023-07-13T12:55:39;99995.94;;;22.05;60.97
31681;BME280;18281;51.364;9.566;2023-07-13T12:58:06;99992.16;;;22.24;60.96
31681;BME280;18281;51.364;9.566;2023-07-13T13:00:32;99994.69;;;22.34;60.55
31681;BME280;18281;51.364;9.566;2023-07-13T13:03:00;99994.84;;;22.24;60.94
31681;BME280;18281;51.364;9.566;2023-07-13T13:05:28;99985.38;;;22.38;61.57
31681;BME280;18281;51.364;9.566;2023-07-13T13:07:53;99998.34;;;22.24;61.20
31681;BME280;18281;51.364;9.566;2023-07-13T13:10:19;99994.81;;;22.16;60.98
31681;BME280;18281;51.364;9.566;2023-07-13T13:12:46;100005.66;;;22.06;61.82
31681;BME280;18281;51.364;9.566;2023-07-13T13:15:11;100009.31;;;22.05;61.26
31681;BME280;18281;51.364;9.566;2023-07-13T13:17:36;100000.91;;;21.65;60.98
31681;BME280;18281;51.364;9.566;2023-07-13T13:20:04;99992.41;;;21.96;60.73
31681;BME280;18281;51.364;9.566;2023-07-13T13:22:31;99987.13;;;22.13;61.30
31681;BME280;18281;51.364;9.566;2023-07-13T13:24:57;100001.72;;;22.26;60.73
31681;BME280;18281;51.364;9.566;2023-07-13T13:27:22;100005.91;;;22.29;60.65
31681;BME280;18281;51.364;9.566;2023-07-13T13:29:49;100007.13;;;22.08;60.69
31681;BME280;18281;51.364;9.566;2023-07-13T13:32:16;100003.25;;;21.95;60.33